Flight Briefing for CPX951

Departure Arrival
Washington Dulles International Airport (KIAD)
Click to view FAA NOTAMS
Joint Base McGuire Dix Lakehurst (KWRI)
Click to view FAA NOTAMS
Departure Time Arrival Time
N/A N/A
Aircraft Distance
B757-200SF 151nm
Departure METAR Arrival METAR
KIAD 232252Z 19006KT 10SM SCT110 BKN250 24/19 A2998 RMK AO2 SLP150 T02440194 $ KWRI 232256Z AUTO 17003KT 10SM FEW120 21/21 A2989 RMK AO2 SLP121 T02070207
Suggested Route
MXE


View recent IFR Routes data
Notes
EMPTY | NON-REVENUE REPOSITIONING LEG

Charts and Procedures

Charts for KIAD
No chart available
Charts for KWRI
No chart available

Windy.com Weather Map